sensor_id;sensor_type;location;lat;lon;timestamp;pressure;altitude;pressure_sealevel;temperature;humidity
77192;BME280;66172;48.526;8.078;2023-08-17T00:02:19;99610.16;;;20.32;92.73
77192;BME280;66172;48.526;8.078;2023-08-17T00:04:45;99609.03;;;20.12;94.73
77192;BME280;66172;48.526;8.078;2023-08-17T00:07:11;99614.16;;;20.03;95.09
77192;BME280;66172;48.526;8.078;2023-08-17T00:09:37;99609.81;;;19.95;95.92
77192;BME280;66172;48.526;8.078;2023-08-17T00:12:03;99605.09;;;19.95;95.86
77192;BME280;66172;48.526;8.078;2023-08-17T00:14:29;99612.16;;;20.11;94.08
77192;BME280;66172;48.526;8.078;2023-08-17T00:16:56;99617.34;;;19.98;95.35
77192;BME280;66172;48.526;8.078;2023-08-17T00:19:22;99606.28;;;19.98;95.45
77192;BME280;66172;48.526;8.078;2023-08-17T00:21:48;99610.25;;;19.86;96.23
77192;BME280;66172;48.526;8.078;2023-08-17T00:24:13;99614.16;;;19.96;95.63
77192;BME280;66172;48.526;8.078;2023-08-17T00:26:39;99609.00;;;20.16;93.68
77192;BME280;66172;48.526;8.078;2023-08-17T00:29:05;99604.66;;;20.22;92.19
77192;BME280;66172;48.526;8.078;2023-08-17T00:31:31;99597.53;;;20.31;91.51
77192;BME280;66172;48.526;8.078;2023-08-17T00:33:57;99597.94;;;20.26;91.80
77192;BME280;66172;48.526;8.078;2023-08-17T00:36:23;99603.03;;;20.35;90.75
77192;BME280;66172;48.526;8.078;2023-08-17T00:38:49;99603.84;;;20.39;90.13
77192;BME280;66172;48.526;8.078;2023-08-17T00:41:15;99601.06;;;20.39;89.79
77192;BME280;66172;48.526;8.078;2023-08-17T00:43:40;99593.19;;;20.23;90.89
77192;BME280;66172;48.526;8.078;2023-08-17T00:46:07;99594.38;;;20.22;91.00
77192;BME280;66172;48.526;8.078;2023-08-17T00:48:33;99587.72;;;19.99;92.54
77192;BME280;66172;48.526;8.078;2023-08-17T00:51:01;99594.03;;;20.06;92.75
77192;BME280;66172;48.526;8.078;2023-08-17T00:53:29;99597.53;;;20.21;90.93
77192;BME280;66172;48.526;8.078;2023-08-17T00:55:56;99582.94;;;20.20;90.95
77192;BME280;66172;48.526;8.078;2023-08-17T00:58:22;99581.78;;;20.11;91.89
77192;BME280;66172;48.526;8.078;2023-08-17T01:00:48;99584.53;;;20.21;91.19
77192;BME280;66172;48.526;8.078;2023-08-17T01:03:15;99584.91;;;20.16;90.39
77192;BME280;66172;48.526;8.078;2023-08-17T01:05:41;99589.69;;;20.16;90.37
77192;BME280;66172;48.526;8.078;2023-08-17T01:08:06;99579.06;;;19.97;91.04
77192;BME280;66172;48.526;8.078;2023-08-17T01:14:05;99580.28;;;19.64;94.15
77192;BME280;66172;48.526;8.078;2023-08-17T01:16:56;99577.53;;;19.53;95.57
77192;BME280;66172;48.526;8.078;2023-08-17T01:19:27;99575.97;;;19.56;95.03
77192;BME280;66172;48.526;8.078;2023-08-17T01:22:04;99578.75;;;19.45;95.97
77192;BME280;66172;48.526;8.078;2023-08-17T01:24:30;99582.66;;;19.40;97.17
77192;BME280;66172;48.526;8.078;2023-08-17T01:26:56;99587.38;;;19.40;97.37
77192;BME280;66172;48.526;8.078;2023-08-17T01:29:22;99592.09;;;19.32;97.63
77192;BME280;66172;48.526;8.078;2023-08-17T01:32:04;99599.97;;;19.16;99.22
77192;BME280;66172;48.526;8.078;2023-08-17T01:34:39;99594.44;;;19.13;99.71
77192;BME280;66172;48.526;8.078;2023-08-17T01:37:07;99592.06;;;19.15;99.45
77192;BME280;66172;48.526;8.078;2023-08-17T01:39:38;99601.56;;;19.35;96.83
77192;BME280;66172;48.526;8.078;2023-08-17T01:42:06;99602.38;;;19.46;95.15
77192;BME280;66172;48.526;8.078;2023-08-17T01:44:32;99599.22;;;19.51;94.71
77192;BME280;66172;48.526;8.078;2023-08-17T01:46:58;99590.94;;;19.44;94.61
77192;BME280;66172;48.526;8.078;2023-08-17T01:49:24;99595.66;;;19.40;95.00
77192;BME280;66172;48.526;8.078;2023-08-17T01:51:50;99598.84;;;19.56;93.54
77192;BME280;66172;48.526;8.078;2023-08-17T01:54:16;99591.31;;;19.71;92.26
77192;BME280;66172;48.526;8.078;2023-08-17T01:56:42;99601.97;;;19.76;91.61
77192;BME280;66172;48.526;8.078;2023-08-17T01:59:08;99598.78;;;19.91;90.56
77192;BME280;66172;48.526;8.078;2023-08-17T02:01:34;99603.53;;;20.02;89.09
77192;BME280;66172;48.526;8.078;2023-08-17T02:04:00;99588.94;;;19.98;88.94
77192;BME280;66172;48.526;8.078;2023-08-17T02:06:28;99592.09;;;19.85;89.78
77192;BME280;66172;48.526;8.078;2023-08-17T02:08:54;99599.59;;;19.88;90.06
77192;BME280;66172;48.526;8.078;2023-08-17T02:11:20;99588.56;;;19.78;91.18
77192;BME280;66172;48.526;8.078;2023-08-17T02:13:46;99588.19;;;19.51;93.08
77192;BME280;66172;48.526;8.078;2023-08-17T02:16:12;99584.63;;;19.36;94.58
77192;BME280;66172;48.526;8.078;2023-08-17T02:18:38;99580.69;;;19.30;95.68
77192;BME280;66172;48.526;8.078;2023-08-17T02:21:04;99587.81;;;19.49;94.24
77192;BME280;66172;48.526;8.078;2023-08-17T02:23:30;99585.81;;;19.42;93.98
77192;BME280;66172;48.526;8.078;2023-08-17T02:25:56;99581.47;;;19.34;94.45
77192;BME280;66172;48.526;8.078;2023-08-17T02:28:22;99587.38;;;19.29;94.92
77192;BME280;66172;48.526;8.078;2023-08-17T02:30:47;99582.63;;;19.23;95.48
77192;BME280;66172;48.526;8.078;2023-08-17T02:33:14;99579.88;;;19.26;95.44
77192;BME280;66172;48.526;8.078;2023-08-17T02:35:40;99583.44;;;19.30;94.67
77192;BME280;66172;48.526;8.078;2023-08-17T02:38:06;99589.34;;;19.25;95.46
77192;BME280;66172;48.526;8.078;2023-08-17T02:40:32;99590.53;;;19.21;95.69
77192;BME280;66172;48.526;8.078;2023-08-17T02:42:58;99591.72;;;19.30;95.32
77192;BME280;66172;48.526;8.078;2023-08-17T02:45:23;99597.22;;;19.30;94.97
77192;BME280;66172;48.526;8.078;2023-08-17T02:47:49;99591.31;;;19.32;94.61
77192;BME280;66172;48.526;8.078;2023-08-17T02:50:15;99594.47;;;19.20;96.11
77192;BME280;66172;48.526;8.078;2023-08-17T02:52:42;99595.63;;;19.26;95.62
77192;BME280;66172;48.526;8.078;2023-08-17T02:55:08;99588.53;;;19.21;96.43
77192;BME280;66172;48.526;8.078;2023-08-17T02:57:34;99586.56;;;19.25;96.57
77192;BME280;66172;48.526;8.078;2023-08-17T03:00:00;99585.44;;;19.44;94.67
77192;BME280;66172;48.526;8.078;2023-08-17T03:02:26;99585.81;;;19.64;93.46
77192;BME280;66172;48.526;8.078;2023-08-17T03:04:51;99579.13;;;19.72;92.48
77192;BME280;66172;48.526;8.078;2023-08-17T03:07:17;99573.59;;;19.72;92.20
77192;BME280;66172;48.526;8.078;2023-08-17T03:09:43;99563.34;;;19.79;91.50
77192;BME280;66172;48.526;8.078;2023-08-17T03:12:09;99562.16;;;19.77;91.44
77192;BME280;66172;48.526;8.078;2023-08-17T03:14:35;99562.16;;;19.80;90.76
77192;BME280;66172;48.526;8.078;2023-08-17T03:17:01;99562.94;;;19.74;91.25
77192;BME280;66172;48.526;8.078;2023-08-17T03:19:27;99564.88;;;19.94;88.75
77192;BME280;66172;48.526;8.078;2023-08-17T03:21:53;99557.81;;;19.76;90.04
77192;BME280;66172;48.526;8.078;2023-08-17T03:24:18;99554.63;;;19.81;89.29
77192;BME280;66172;48.526;8.078;2023-08-17T03:26:44;99559.41;;;19.66;90.67
77192;BME280;66172;48.526;8.078;2023-08-17T03:29:10;99555.47;;;19.64;90.97
77192;BME280;66172;48.526;8.078;2023-08-17T03:31:36;99555.09;;;19.51;92.33
77192;BME280;66172;48.526;8.078;2023-08-17T03:34:02;99559.44;;;19.41;93.26
77192;BME280;66172;48.526;8.078;2023-08-17T03:36:28;99556.28;;;19.43;92.65
77192;BME280;66172;48.526;8.078;2023-08-17T03:38:54;99554.31;;;19.47;92.32
77192;BME280;66172;48.526;8.078;2023-08-17T03:41:21;99566.94;;;19.41;93.13
77192;BME280;66172;48.526;8.078;2023-08-17T03:43:49;99558.63;;;19.37;93.72
77192;BME280;66172;48.526;8.078;2023-08-17T03:46:15;99560.97;;;19.35;93.76
77192;BME280;66172;48.526;8.078;2023-08-17T03:48:40;99564.50;;;19.36;94.21
77192;BME280;66172;48.526;8.078;2023-08-17T03:51:06;99563.38;;;19.48;93.43
77192;BME280;66172;48.526;8.078;2023-08-17T03:53:32;99556.66;;;19.63;92.11
77192;BME280;66172;48.526;8.078;2023-08-17T03:55:58;99562.53;;;19.79;90.71
77192;BME280;66172;48.526;8.078;2023-08-17T03:58:24;99562.94;;;19.67;91.18
77192;BME280;66172;48.526;8.078;2023-08-17T04:00:53;99565.69;;;19.70;90.97
77192;BME280;66172;48.526;8.078;2023-08-17T04:03:19;99563.34;;;19.76;90.48
77192;BME280;66172;48.526;8.078;2023-08-17T04:05:45;99576.34;;;19.82;90.27
77192;BME280;66172;48.526;8.078;2023-08-17T04:08:11;99571.19;;;19.88;88.76
77192;BME280;66172;48.526;8.078;2023-08-17T04:10:37;99572.75;;;19.96;87.89
77192;BME280;66172;48.526;8.078;2023-08-17T04:13:03;99567.66;;;19.91;87.55
77192;BME280;66172;48.526;8.078;2023-08-17T04:15:29;99581.03;;;19.92;87.60
77192;BME280;66172;48.526;8.078;2023-08-17T04:17:54;99579.06;;;19.93;86.99
77192;BME280;66172;48.526;8.078;2023-08-17T04:20:20;99572.41;;;19.76;88.33
77192;BME280;66172;48.526;8.078;2023-08-17T04:22:48;99579.50;;;19.74;88.62
77192;BME280;66172;48.526;8.078;2023-08-17T04:25:15;99572.41;;;19.73;87.90
77192;BME280;66172;48.526;8.078;2023-08-17T04:27:41;99585.41;;;19.37;89.92
77192;BME280;66172;48.526;8.078;2023-08-17T04:30:07;99583.81;;;19.15;92.51
77192;BME280;66172;48.526;8.078;2023-08-17T04:32:33;99580.28;;;19.28;91.32
77192;BME280;66172;48.526;8.078;2023-08-17T04:34:59;99583.06;;;19.53;89.65
77192;BME280;66172;48.526;8.078;2023-08-17T04:37:25;99581.09;;;19.54;89.50
77192;BME280;66172;48.526;8.078;2023-08-17T04:39:51;99584.25;;;19.66;87.89
77192;BME280;66172;48.526;8.078;2023-08-17T04:42:17;99580.72;;;19.59;88.57
77192;BME280;66172;48.526;8.078;2023-08-17T04:44:45;99577.94;;;19.55;89.33
77192;BME280;66172;48.526;8.078;2023-08-17T04:47:11;99587.81;;;19.63;88.58
77192;BME280;66172;48.526;8.078;2023-08-17T04:49:37;99583.84;;;19.75;88.02
77192;BME280;66172;48.526;8.078;2023-08-17T04:52:03;99585.41;;;19.76;87.24
77192;BME280;66172;48.526;8.078;2023-08-17T04:54:29;99598.06;;;19.45;89.46
77192;BME280;66172;48.526;8.078;2023-08-17T04:56:55;99598.38;;;19.19;91.44
77192;BME280;66172;48.526;8.078;2023-08-17T04:59:21;99588.53;;;19.07;92.37
77192;BME280;66172;48.526;8.078;2023-08-17T05:01:47;99592.88;;;19.12;92.25
77192;BME280;66172;48.526;8.078;2023-08-17T05:04:13;99590.91;;;19.23;91.75
77192;BME280;66172;48.526;8.078;2023-08-17T05:06:39;99594.09;;;19.46;90.27
77192;BME280;66172;48.526;8.078;2023-08-17T05:09:05;99602.38;;;19.53;89.70
77192;BME280;66172;48.526;8.078;2023-08-17T05:11:31;99596.09;;;19.63;88.92
77192;BME280;66172;48.526;8.078;2023-08-17T05:13:57;99591.31;;;19.64;89.15
77192;BME280;66172;48.526;8.078;2023-08-17T05:16:23;99585.00;;;19.70;88.74
77192;BME280;66172;48.526;8.078;2023-08-17T05:18:49;99599.22;;;19.83;88.10
77192;BME280;66172;48.526;8.078;2023-08-17T05:21:14;99601.94;;;19.97;87.20
77192;BME280;66172;48.526;8.078;2023-08-17T05:23:40;99598.75;;;20.09;86.89
77192;BME280;66172;48.526;8.078;2023-08-17T05:26:06;99610.97;;;20.22;86.32
77192;BME280;66172;48.526;8.078;2023-08-17T05:28:33;99601.09;;;20.21;86.04
77192;BME280;66172;48.526;8.078;2023-08-17T05:31:06;99604.19;;;20.41;84.47
77192;BME280;66172;48.526;8.078;2023-08-17T05:33:32;99609.38;;;20.35;85.22
77192;BME280;66172;48.526;8.078;2023-08-17T05:35:58;99608.59;;;20.28;85.64
77192;BME280;66172;48.526;8.078;2023-08-17T05:38:24;99612.88;;;20.47;84.36
77192;BME280;66172;48.526;8.078;2023-08-17T05:40:55;99602.72;;;20.08;85.85
77192;BME280;66172;48.526;8.078;2023-08-17T05:43:21;99605.88;;;19.96;87.01
77192;BME280;66172;48.526;8.078;2023-08-17T05:45:47;99616.16;;;19.85;87.60
77192;BME280;66172;48.526;8.078;2023-08-17T05:48:12;99614.16;;;20.00;87.19
77192;BME280;66172;48.526;8.078;2023-08-17T05:50:41;99623.16;;;20.42;84.92
77192;BME280;66172;48.526;8.078;2023-08-17T05:53:07;99612.88;;;21.74;79.12
77192;BME280;66172;48.526;8.078;2023-08-17T05:55:33;99616.69;;;22.66;74.40
77192;BME280;66172;48.526;8.078;2023-08-17T05:57:59;99611.91;;;23.54;70.25
77192;BME280;66172;48.526;8.078;2023-08-17T06:00:25;99611.09;;;24.98;64.66
77192;BME280;66172;48.526;8.078;2023-08-17T06:02:51;99609.34;;;25.24;63.29
77192;BME280;66172;48.526;8.078;2023-08-17T06:05:17;99607.44;;;24.65;65.38
77192;BME280;66172;48.526;8.078;2023-08-17T06:07:43;99618.41;;;24.72;65.09
77192;BME280;66172;48.526;8.078;2023-08-17T06:10:10;99611.16;;;24.59;65.65
77192;BME280;66172;48.526;8.078;2023-08-17T06:12:36;99610.53;;;24.51;66.00
77192;BME280;66172;48.526;8.078;2023-08-17T06:15:02;99612.84;;;24.13;67.08
77192;BME280;66172;48.526;8.078;2023-08-17T06:17:28;99624.66;;;23.48;69.60
77192;BME280;66172;48.526;8.078;2023-08-17T06:19:54;99616.72;;;23.50;70.08
77192;BME280;66172;48.526;8.078;2023-08-17T06:22:20;99620.53;;;23.32;70.57
77192;BME280;66172;48.526;8.078;2023-08-17T06:24:46;99622.03;;;23.10;71.94
77192;BME280;66172;48.526;8.078;2023-08-17T06:27:14;99618.63;;;23.26;71.65
77192;BME280;66172;48.526;8.078;2023-08-17T06:29:40;99624.06;;;23.33;71.69
77192;BME280;66172;48.526;8.078;2023-08-17T06:32:06;99613.75;;;23.33;71.84
77192;BME280;66172;48.526;8.078;2023-08-17T06:34:32;99619.19;;;23.40;71.02
77192;BME280;66172;48.526;8.078;2023-08-17T06:36:59;99630.00;;;23.35;70.98
77192;BME280;66172;48.526;8.078;2023-08-17T06:39:27;99637.88;;;23.36;70.29
77192;BME280;66172;48.526;8.078;2023-08-17T06:41:53;99634.34;;;23.09;72.07
77192;BME280;66172;48.526;8.078;2023-08-17T06:44:19;99640.81;;;22.99;72.27
77192;BME280;66172;48.526;8.078;2023-08-17T06:46:45;99644.38;;;23.00;73.29
77192;BME280;66172;48.526;8.078;2023-08-17T06:49:12;99646.88;;;22.90;73.83
77192;BME280;66172;48.526;8.078;2023-08-17T06:51:38;99649.47;;;22.74;74.52
77192;BME280;66172;48.526;8.078;2023-08-17T06:54:06;99643.56;;;22.72;74.17
77192;BME280;66172;48.526;8.078;2023-08-17T06:56:32;99647.56;;;22.68;75.29
77192;BME280;66172;48.526;8.078;2023-08-17T06:58:58;99645.44;;;22.79;73.36
77192;BME280;66172;48.526;8.078;2023-08-17T07:01:24;99643.16;;;22.70;73.87
77192;BME280;66172;48.526;8.078;2023-08-17T07:03:50;99643.22;;;22.63;75.15
77192;BME280;66172;48.526;8.078;2023-08-17T07:06:15;99641.28;;;22.60;75.61
77192;BME280;66172;48.526;8.078;2023-08-17T07:08:41;99647.16;;;22.69;75.37
77192;BME280;66172;48.526;8.078;2023-08-17T07:11:07;99649.00;;;22.79;74.97
77192;BME280;66172;48.526;8.078;2023-08-17T07:13:34;99643.78;;;22.85;74.71
77192;BME280;66172;48.526;8.078;2023-08-17T07:16:00;99646.41;;;22.96;73.51
77192;BME280;66172;48.526;8.078;2023-08-17T07:18:26;99645.19;;;23.00;73.02
77192;BME280;66172;48.526;8.078;2023-08-17T07:20:52;99663.00;;;22.99;72.96
77192;BME280;66172;48.526;8.078;2023-08-17T07:23:17;99655.56;;;22.93;72.83
77192;BME280;66172;48.526;8.078;2023-08-17T07:25:43;99655.00;;;22.74;74.99
77192;BME280;66172;48.526;8.078;2023-08-17T07:28:10;99651.34;;;22.81;75.16
77192;BME280;66172;48.526;8.078;2023-08-17T07:30:35;99648.78;;;22.97;74.11
77192;BME280;66172;48.526;8.078;2023-08-17T07:33:01;99654.13;;;23.11;74.27
77192;BME280;66172;48.526;8.078;2023-08-17T07:35:27;99656.28;;;23.27;72.16
77192;BME280;66172;48.526;8.078;2023-08-17T07:37:53;99658.91;;;23.37;72.69
77192;BME280;66172;48.526;8.078;2023-08-17T07:40:19;99657.50;;;23.53;71.62
77192;BME280;66172;48.526;8.078;2023-08-17T07:42:45;99657.75;;;23.62;70.72
77192;BME280;66172;48.526;8.078;2023-08-17T07:45:12;99661.66;;;23.68;71.01
77192;BME280;66172;48.526;8.078;2023-08-17T07:47:38;99666.25;;;23.78;70.35
77192;BME280;66172;48.526;8.078;2023-08-17T07:50:05;99670.09;;;23.84;70.92
77192;BME280;66172;48.526;8.078;2023-08-17T07:52:31;99672.19;;;24.00;69.45
77192;BME280;66172;48.526;8.078;2023-08-17T07:54:57;99669.00;;;24.24;68.99
77192;BME280;66172;48.526;8.078;2023-08-17T07:57:23;99669.41;;;24.66;67.62
77192;BME280;66172;48.526;8.078;2023-08-17T07:59:49;99666.13;;;25.26;66.38
77192;BME280;66172;48.526;8.078;2023-08-17T08:02:15;99665.00;;;25.92;64.46
77192;BME280;66172;48.526;8.078;2023-08-17T08:04:41;99664.56;;;25.94;63.06
77192;BME280;66172;48.526;8.078;2023-08-17T08:07:07;99665.25;;;25.98;63.24
77192;BME280;66172;48.526;8.078;2023-08-17T08:09:32;99663.25;;;26.88;60.55
77192;BME280;66172;48.526;8.078;2023-08-17T08:11:58;99649.47;;;28.42;56.01
77192;BME280;66172;48.526;8.078;2023-08-17T08:14:24;99655.75;;;29.20;53.21
77192;BME280;66172;48.526;8.078;2023-08-17T08:16:50;99666.59;;;29.40;53.06
77192;BME280;66172;48.526;8.078;2023-08-17T08:19:16;99655.88;;;29.47;52.51
77192;BME280;66172;48.526;8.078;2023-08-17T08:21:42;99663.09;;;30.52;50.00
77192;BME280;66172;48.526;8.078;2023-08-17T08:24:08;99667.84;;;31.66;47.63
77192;BME280;66172;48.526;8.078;2023-08-17T08:26:34;99668.78;;;31.63;47.13
77192;BME280;66172;48.526;8.078;2023-08-17T08:29:00;99662.03;;;31.69;46.34
77192;BME280;66172;48.526;8.078;2023-08-17T08:31:26;99666.72;;;31.96;45.14
77192;BME280;66172;48.526;8.078;2023-08-17T08:33:52;99677.94;;;32.05;45.30
77192;BME280;66172;48.526;8.078;2023-08-17T08:36:19;99678.84;;;32.50;44.80
77192;BME280;66172;48.526;8.078;2023-08-17T08:38:44;99682.69;;;32.38;44.09
77192;BME280;66172;48.526;8.078;2023-08-17T08:41:11;99678.22;;;33.43;42.74
77192;BME280;66172;48.526;8.078;2023-08-17T08:43:38;99683.97;;;33.34;42.55
77192;BME280;66172;48.526;8.078;2023-08-17T08:46:04;99675.50;;;33.48;41.89
77192;BME280;66172;48.526;8.078;2023-08-17T08:48:32;99682.75;;;33.20;42.21
77192;BME280;66172;48.526;8.078;2023-08-17T08:51:00;99695.34;;;33.10;43.01
77192;BME280;66172;48.526;8.078;2023-08-17T08:53:36;99689.47;;;31.84;44.76
77192;BME280;66172;48.526;8.078;2023-08-17T08:56:03;99686.91;;;31.20;46.76
77192;BME280;66172;48.526;8.078;2023-08-17T08:58:31;99689.84;;;31.67;45.36
77192;BME280;66172;48.526;8.078;2023-08-17T09:00:58;99681.72;;;32.26;45.08
77192;BME280;66172;48.526;8.078;2023-08-17T09:03:26;99682.97;;;32.25;45.03
77192;BME280;66172;48.526;8.078;2023-08-17T09:05:53;99681.16;;;32.37;45.03
77192;BME280;66172;48.526;8.078;2023-08-17T09:08:22;99674.84;;;32.80;43.21
77192;BME280;66172;48.526;8.078;2023-08-17T09:10:49;99678.63;;;31.91;45.15
77192;BME280;66172;48.526;8.078;2023-08-17T09:13:15;99681.16;;;31.47;46.56
77192;BME280;66172;48.526;8.078;2023-08-17T09:15:41;99677.97;;;31.21;47.17
77192;BME280;66172;48.526;8.078;2023-08-17T09:18:07;99675.34;;;31.60;46.24
77192;BME280;66172;48.526;8.078;2023-08-17T09:20:41;99680.03;;;32.58;45.02
77192;BME280;66172;48.526;8.078;2023-08-17T09:25:40;99657.63;;;33.37;42.63
77192;BME280;66172;48.526;8.078;2023-08-17T09:28:07;99666.75;;;34.36;40.08
77192;BME280;66172;48.526;8.078;2023-08-17T09:30:54;99669.91;;;34.64;40.30
77192;BME280;66172;48.526;8.078;2023-08-17T09:33:21;99659.19;;;34.99;38.84
77192;BME280;66172;48.526;8.078;2023-08-17T09:35:48;99645.72;;;35.51;38.45
77192;BME280;66172;48.526;8.078;2023-08-17T09:38:14;99649.00;;;36.24;36.81
77192;BME280;66172;48.526;8.078;2023-08-17T09:40:40;99652.25;;;36.76;36.62
77192;BME280;66172;48.526;8.078;2023-08-17T09:43:06;99645.59;;;37.12;35.27
77192;BME280;66172;48.526;8.078;2023-08-17T09:45:32;99643.75;;;36.87;35.71
77192;BME280;66172;48.526;8.078;2023-08-17T09:47:59;99635.97;;;36.71;35.32
77192;BME280;66172;48.526;8.078;2023-08-17T09:50:25;99634.38;;;36.47;36.24
77192;BME280;66172;48.526;8.078;2023-08-17T09:52:55;99638.75;;;36.43;36.37
77192;BME280;66172;48.526;8.078;2023-08-17T09:55:23;99640.94;;;37.03;34.97
77192;BME280;66172;48.526;8.078;2023-08-17T09:57:50;99639.63;;;37.60;33.95
77192;BME280;66172;48.526;8.078;2023-08-17T10:00:19;99654.84;;;36.90;35.45
77192;BME280;66172;48.526;8.078;2023-08-17T10:02:45;99647.38;;;37.32;35.59
77192;BME280;66172;48.526;8.078;2023-08-17T10:05:18;99643.50;;;36.96;35.15
77192;BME280;66172;48.526;8.078;2023-08-17T10:07:47;99647.38;;;37.48;34.89
77192;BME280;66172;48.526;8.078;2023-08-17T10:10:20;99642.69;;;38.36;33.42
77192;BME280;66172;48.526;8.078;2023-08-17T10:13:01;99638.06;;;38.39;32.92
77192;BME280;66172;48.526;8.078;2023-08-17T10:15:34;99650.97;;;37.27;34.76
77192;BME280;66172;48.526;8.078;2023-08-17T10:18:12;99642.97;;;36.92;36.42
77192;BME280;66172;48.526;8.078;2023-08-17T10:20:42;99651.75;;;37.27;36.33
77192;BME280;66172;48.526;8.078;2023-08-17T10:23:14;99656.63;;;36.82;37.24
77192;BME280;66172;48.526;8.078;2023-08-17T10:25:43;99660.56;;;37.01;35.98
77192;BME280;66172;48.526;8.078;2023-08-17T10:28:10;99668.03;;;37.16;35.73
77192;BME280;66172;48.526;8.078;2023-08-17T10:30:37;99662.59;;;37.57;35.31
77192;BME280;66172;48.526;8.078;2023-08-17T10:33:07;99652.72;;;38.95;33.21
77192;BME280;66172;48.526;8.078;2023-08-17T10:35:33;99652.47;;;39.28;32.18
77192;BME280;66172;48.526;8.078;2023-08-17T10:38:02;99660.59;;;38.26;33.35
77192;BME280;66172;48.526;8.078;2023-08-17T10:40:35;99668.50;;;36.11;37.11
77192;BME280;66172;48.526;8.078;2023-08-17T10:43:01;99676.38;;;34.96;39.29
77192;BME280;66172;48.526;8.078;2023-08-17T10:45:29;99678.09;;;34.01;41.02
77192;BME280;66172;48.526;8.078;2023-08-17T10:50:38;99677.63;;;32.27;45.01
77192;BME280;66172;48.526;8.078;2023-08-17T10:53:08;99665.06;;;32.13;46.15
77192;BME280;66172;48.526;8.078;2023-08-17T10:55:39;99668.56;;;32.23;46.31
77192;BME280;66172;48.526;8.078;2023-08-17T10:58:08;99667.25;;;32.72;45.02
77192;BME280;66172;48.526;8.078;2023-08-17T11:00:35;99672.59;;;32.70;45.48
77192;BME280;66172;48.526;8.078;2023-08-17T11:03:10;99667.34;;;32.77;44.60
77192;BME280;66172;48.526;8.078;2023-08-17T11:05:49;99660.88;;;33.00;44.52
77192;BME280;66172;48.526;8.078;2023-08-17T11:08:34;99652.72;;;33.17;44.80
77192;BME280;66172;48.526;8.078;2023-08-17T11:11:09;99648.97;;;34.76;41.13
77192;BME280;66172;48.526;8.078;2023-08-17T11:13:42;99643.81;;;36.17;37.90
77192;BME280;66172;48.526;8.078;2023-08-17T11:16:10;99631.63;;;36.75;36.93
77192;BME280;66172;48.526;8.078;2023-08-17T11:18:37;99623.63;;;37.46;35.16
77192;BME280;66172;48.526;8.078;2023-08-17T11:21:05;99620.03;;;36.79;36.25
77192;BME280;66172;48.526;8.078;2023-08-17T11:23:34;99617.72;;;37.33;35.73
77192;BME280;66172;48.526;8.078;2023-08-17T11:26:00;99603.91;;;37.87;34.47
77192;BME280;66172;48.526;8.078;2023-08-17T11:28:26;99598.28;;;38.33;33.67
77192;BME280;66172;48.526;8.078;2023-08-17T11:31:00;99595.13;;;37.85;34.66
77192;BME280;66172;48.526;8.078;2023-08-17T11:33:26;99594.44;;;37.68;35.04
77192;BME280;66172;48.526;8.078;2023-08-17T11:35:59;99588.50;;;38.70;33.22
77192;BME280;66172;48.526;8.078;2023-08-17T11:38:26;99579.63;;;37.91;34.89
77192;BME280;66172;48.526;8.078;2023-08-17T11:40:52;99578.22;;;38.20;33.96
77192;BME280;66172;48.526;8.078;2023-08-17T11:43:19;99585.56;;;37.99;34.53
77192;BME280;66172;48.526;8.078;2023-08-17T11:45:46;99587.94;;;38.41;34.76
77192;BME280;66172;48.526;8.078;2023-08-17T11:48:12;99580.56;;;38.92;33.33
77192;BME280;66172;48.526;8.078;2023-08-17T11:50:38;99570.22;;;38.95;33.20
77192;BME280;66172;48.526;8.078;2023-08-17T11:53:05;99567.41;;;38.89;33.07
77192;BME280;66172;48.526;8.078;2023-08-17T11:55:31;99553.56;;;39.05;33.32
77192;BME280;66172;48.526;8.078;2023-08-17T11:57:57;99561.81;;;39.08;32.57
77192;BME280;66172;48.526;8.078;2023-08-17T12:00:23;99560.47;;;38.85;33.78
77192;BME280;66172;48.526;8.078;2023-08-17T12:02:52;99554.16;;;38.97;32.03
77192;BME280;66172;48.526;8.078;2023-08-17T12:05:22;99560.84;;;38.70;33.28
77192;BME280;66172;48.526;8.078;2023-08-17T12:07:54;99565.19;;;38.71;33.53
77192;BME280;66172;48.526;8.078;2023-08-17T12:10:21;99564.78;;;37.58;36.57
77192;BME280;66172;48.526;8.078;2023-08-17T12:12:48;99569.88;;;37.76;36.76
77192;BME280;66172;48.526;8.078;2023-08-17T12:15:17;99569.38;;;37.72;36.50
77192;BME280;66172;48.526;8.078;2023-08-17T12:17:45;99576.91;;;37.58;36.90
77192;BME280;66172;48.526;8.078;2023-08-17T12:20:18;99596.28;;;37.26;37.32
77192;BME280;66172;48.526;8.078;2023-08-17T12:22:46;99598.25;;;36.26;39.16
77192;BME280;66172;48.526;8.078;2023-08-17T12:25:13;99592.16;;;36.61;39.00
77192;BME280;66172;48.526;8.078;2023-08-17T12:27:39;99599.16;;;36.00;39.74
77192;BME280;66172;48.526;8.078;2023-08-17T12:30:12;99587.06;;;35.46;40.55
77192;BME280;66172;48.526;8.078;2023-08-17T12:32:38;99580.97;;;35.22;40.34
77192;BME280;66172;48.526;8.078;2023-08-17T12:35:05;99578.97;;;34.40;42.49
77192;BME280;66172;48.526;8.078;2023-08-17T12:37:30;99562.91;;;34.26;43.58
77192;BME280;66172;48.526;8.078;2023-08-17T12:39:56;99552.13;;;34.81;42.58
77192;BME280;66172;48.526;8.078;2023-08-17T12:42:22;99554.00;;;34.90;42.95
77192;BME280;66172;48.526;8.078;2023-08-17T12:44:48;99542.63;;;34.84;42.90
77192;BME280;66172;48.526;8.078;2023-08-17T12:47:14;99544.44;;;35.19;42.03
77192;BME280;66172;48.526;8.078;2023-08-17T12:49:40;99552.53;;;35.37;40.47
77192;BME280;66172;48.526;8.078;2023-08-17T12:52:06;99547.22;;;36.09;39.14
77192;BME280;66172;48.526;8.078;2023-08-17T12:54:32;99532.31;;;36.25;38.71
77192;BME280;66172;48.526;8.078;2023-08-17T12:56:58;99531.16;;;35.78;39.93
77192;BME280;66172;48.526;8.078;2023-08-17T12:59:24;99519.84;;;34.93;41.33
77192;BME280;66172;48.526;8.078;2023-08-17T13:01:49;99517.00;;;35.30;41.20
77192;BME280;66172;48.526;8.078;2023-08-17T13:04:15;99512.81;;;35.63;40.70
77192;BME280;66172;48.526;8.078;2023-08-17T13:06:41;99509.22;;;35.20;41.21
77192;BME280;66172;48.526;8.078;2023-08-17T13:09:07;99514.34;;;35.16;41.34